sensor_id;sensor_type;location;lat;lon;timestamp;pressure;altitude;pressure_sealevel;temperature;humidity
75221;BME280;63802;53.232;6.570;2023-06-22T00:00:40;102096.56;;;16.43;100.00
75221;BME280;63802;53.232;6.570;2023-06-22T00:03:07;102109.53;;;16.43;100.00
75221;BME280;63802;53.232;6.570;2023-06-22T00:05:32;102095.97;;;16.31;100.00
75221;BME280;63802;53.232;6.570;2023-06-22T00:08:01;102104.66;;;16.33;100.00
75221;BME280;63802;53.232;6.570;2023-06-22T00:10:27;102090.34;;;16.24;100.00
75221;BME280;63802;53.232;6.570;2023-06-22T00:12:52;102090.84;;;16.06;100.00
75221;BME280;63802;53.232;6.570;2023-06-22T00:15:18;102111.91;;;16.18;100.00
75221;BME280;63802;53.232;6.570;2023-06-22T00:17:43;102083.22;;;15.96;100.00
75221;BME280;63802;53.232;6.570;2023-06-22T00:20:09;102087.59;;;16.01;100.00
75221;BME280;63802;53.232;6.570;2023-06-22T00:22:35;102103.81;;;16.06;100.00
75221;BME280;63802;53.232;6.570;2023-06-22T00:25:08;102105.03;;;16.08;100.00
75221;BME280;63802;53.232;6.570;2023-06-22T00:27:35;102102.59;;;16.03;100.00
75221;BME280;63802;53.232;6.570;2023-06-22T00:30:00;102089.75;;;15.88;100.00
75221;BME280;63802;53.232;6.570;2023-06-22T00:32:26;102115.81;;;15.94;100.00
75221;BME280;63802;53.232;6.570;2023-06-22T00:34:51;102102.31;;;15.86;100.00
75221;BME280;63802;53.232;6.570;2023-06-22T00:37:17;102120.47;;;15.90;100.00
75221;BME280;63802;53.232;6.570;2023-06-22T00:39:43;102114.09;;;15.86;100.00
75221;BME280;63802;53.232;6.570;2023-06-22T00:42:09;102109.34;;;15.83;100.00
75221;BME280;63802;53.232;6.570;2023-06-22T00:44:35;102094.97;;;15.71;100.00
75221;BME280;63802;53.232;6.570;2023-06-22T00:47:02;102102.84;;;15.72;100.00
75221;BME280;63802;53.232;6.570;2023-06-22T00:49:28;102128.16;;;15.81;100.00
75221;BME280;63802;53.232;6.570;2023-06-22T00:51:54;102129.34;;;15.80;100.00
75221;BME280;63802;53.232;6.570;2023-06-22T00:54:20;102126.47;;;15.73;100.00
75221;BME280;63802;53.232;6.570;2023-06-22T00:56:58;102120.22;;;15.76;100.00
75221;BME280;63802;53.232;6.570;2023-06-22T00:59:25;102120.97;;;15.73;100.00
75221;BME280;63802;53.232;6.570;2023-06-22T01:01:51;102124.00;;;15.68;100.00
75221;BME280;63802;53.232;6.570;2023-06-22T01:04:17;102130.03;;;15.74;100.00
75221;BME280;63802;53.232;6.570;2023-06-22T01:06:57;102134.28;;;15.71;100.00
75221;BME280;63802;53.232;6.570;2023-06-22T01:09:29;102124.72;;;15.65;100.00
75221;BME280;63802;53.232;6.570;2023-06-22T01:12:02;102129.94;;;15.70;100.00
75221;BME280;63802;53.232;6.570;2023-06-22T01:14:40;102126.16;;;15.78;100.00
75221;BME280;63802;53.232;6.570;2023-06-22T01:17:08;102118.03;;;15.85;100.00
75221;BME280;63802;53.232;6.570;2023-06-22T01:22:01;102122.66;;;15.81;100.00
75221;BME280;63802;53.232;6.570;2023-06-22T01:30:17;102122.06;;;15.69;100.00
75221;BME280;63802;53.232;6.570;2023-06-22T01:32:44;102118.81;;;15.63;100.00
75221;BME280;63802;53.232;6.570;2023-06-22T01:35:10;102114.31;;;15.55;100.00
75221;BME280;63802;53.232;6.570;2023-06-22T01:37:38;102115.06;;;15.52;100.00
75221;BME280;63802;53.232;6.570;2023-06-22T01:40:04;102106.19;;;15.43;100.00
75221;BME280;63802;53.232;6.570;2023-06-22T01:42:32;102110.91;;;15.42;100.00
75221;BME280;63802;53.232;6.570;2023-06-22T01:44:58;102113.97;;;15.37;100.00
75221;BME280;63802;53.232;6.570;2023-06-22T01:47:25;102109.97;;;15.35;100.00
75221;BME280;63802;53.232;6.570;2023-06-22T01:49:50;102099.63;;;15.28;100.00
75221;BME280;63802;53.232;6.570;2023-06-22T01:52:19;102097.31;;;15.30;100.00
75221;BME280;63802;53.232;6.570;2023-06-22T01:54:46;102096.53;;;15.30;100.00
75221;BME280;63802;53.232;6.570;2023-06-22T01:57:12;102097.94;;;15.24;100.00
75221;BME280;63802;53.232;6.570;2023-06-22T02:02:11;102092.03;;;15.22;100.00
75221;BME280;63802;53.232;6.570;2023-06-22T02:04:52;102101.44;;;15.21;100.00
75221;BME280;63802;53.232;6.570;2023-06-22T02:07:21;102093.91;;;15.18;100.00
75221;BME280;63802;53.232;6.570;2023-06-22T02:09:51;102096.66;;;15.18;100.00
75221;BME280;63802;53.232;6.570;2023-06-22T02:12:21;102065.19;;;14.96;100.00
75221;BME280;63802;53.232;6.570;2023-06-22T02:14:47;102100.13;;;15.15;100.00
75221;BME280;63802;53.232;6.570;2023-06-22T02:17:14;102093.69;;;15.07;100.00
75221;BME280;63802;53.232;6.570;2023-06-22T02:19:42;102097.63;;;15.06;100.00
75221;BME280;63802;53.232;6.570;2023-06-22T02:22:08;102079.66;;;14.93;100.00
75221;BME280;63802;53.232;6.570;2023-06-22T02:24:33;102071.19;;;14.83;100.00
75221;BME280;63802;53.232;6.570;2023-06-22T02:27:00;102101.44;;;15.02;100.00
75221;BME280;63802;53.232;6.570;2023-06-22T02:29:25;102065.72;;;14.83;100.00
75221;BME280;63802;53.232;6.570;2023-06-22T02:31:53;102064.91;;;14.82;100.00
75221;BME280;63802;53.232;6.570;2023-06-22T02:34:18;102041.81;;;14.67;100.00
75221;BME280;63802;53.232;6.570;2023-06-22T02:36:48;102073.56;;;14.84;100.00
75221;BME280;63802;53.232;6.570;2023-06-22T02:39:20;102077.72;;;14.94;100.00
75221;BME280;63802;53.232;6.570;2023-06-22T02:41:48;102068.88;;;14.85;100.00
75221;BME280;63802;53.232;6.570;2023-06-22T02:44:14;102081.44;;;14.86;100.00
75221;BME280;63802;53.232;6.570;2023-06-22T02:46:39;102091.03;;;14.92;100.00
75221;BME280;63802;53.232;6.570;2023-06-22T02:49:05;102092.16;;;14.91;100.00
75221;BME280;63802;53.232;6.570;2023-06-22T02:51:33;102099.28;;;14.92;100.00
75221;BME280;63802;53.232;6.570;2023-06-22T02:53:59;102098.03;;;14.89;100.00
75221;BME280;63802;53.232;6.570;2023-06-22T02:56:25;102105.47;;;14.89;100.00
75221;BME280;63802;53.232;6.570;2023-06-22T02:58:51;102098.84;;;14.90;100.00
75221;BME280;63802;53.232;6.570;2023-06-22T03:01:17;102092.03;;;14.84;100.00
75221;BME280;63802;53.232;6.570;2023-06-22T03:03:48;102078.84;;;14.73;100.00
75221;BME280;63802;53.232;6.570;2023-06-22T03:06:13;102093.97;;;14.83;100.00
75221;BME280;63802;53.232;6.570;2023-06-22T03:08:39;102095.03;;;14.78;100.00
75221;BME280;63802;53.232;6.570;2023-06-22T03:11:04;102098.53;;;14.75;100.00
75221;BME280;63802;53.232;6.570;2023-06-22T03:13:29;102096.13;;;14.74;100.00
75221;BME280;63802;53.232;6.570;2023-06-22T03:15:55;102107.28;;;14.81;100.00
75221;BME280;63802;53.232;6.570;2023-06-22T03:18:20;102107.66;;;14.80;100.00
75221;BME280;63802;53.232;6.570;2023-06-22T03:20:47;102086.66;;;14.71;100.00
75221;BME280;63802;53.232;6.570;2023-06-22T03:23:13;102100.97;;;14.81;100.00
75221;BME280;63802;53.232;6.570;2023-06-22T03:25:38;102106.47;;;14.81;100.00
75221;BME280;63802;53.232;6.570;2023-06-22T03:28:04;102085.06;;;14.70;100.00
75221;BME280;63802;53.232;6.570;2023-06-22T03:30:29;102096.22;;;14.77;100.00
75221;BME280;63802;53.232;6.570;2023-06-22T03:32:55;102086.75;;;14.75;100.00
75221;BME280;63802;53.232;6.570;2023-06-22T03:35:21;102102.59;;;14.82;100.00
75221;BME280;63802;53.232;6.570;2023-06-22T03:37:46;102082.81;;;14.76;100.00
75221;BME280;63802;53.232;6.570;2023-06-22T03:40:12;102103.44;;;14.86;100.00
75221;BME280;63802;53.232;6.570;2023-06-22T03:42:37;102107.78;;;14.87;100.00
75221;BME280;63802;53.232;6.570;2023-06-22T03:45:03;102107.50;;;14.92;100.00
75221;BME280;63802;53.232;6.570;2023-06-22T03:47:29;102108.38;;;14.96;100.00
75221;BME280;63802;53.232;6.570;2023-06-22T03:49:54;102099.75;;;14.97;100.00
75221;BME280;63802;53.232;6.570;2023-06-22T03:52:23;102058.47;;;14.74;100.00
75221;BME280;63802;53.232;6.570;2023-06-22T03:54:50;102088.47;;;15.02;100.00
75221;BME280;63802;53.232;6.570;2023-06-22T03:57:16;102063.38;;;14.85;100.00
75221;BME280;63802;53.232;6.570;2023-06-22T03:59:41;102085.38;;;15.04;100.00
75221;BME280;63802;53.232;6.570;2023-06-22T04:02:06;102093.06;;;15.14;100.00
75221;BME280;63802;53.232;6.570;2023-06-22T04:04:32;102064.53;;;15.03;100.00
75221;BME280;63802;53.232;6.570;2023-06-22T04:06:59;102089.41;;;15.29;100.00
75221;BME280;63802;53.232;6.570;2023-06-22T04:09:24;102060.19;;;15.21;100.00
75221;BME280;63802;53.232;6.570;2023-06-22T04:11:50;102091.66;;;15.42;100.00
75221;BME280;63802;53.232;6.570;2023-06-22T04:14:15;102071.53;;;15.38;100.00
75221;BME280;63802;53.232;6.570;2023-06-22T04:16:41;102093.09;;;15.56;100.00
75221;BME280;63802;53.232;6.570;2023-06-22T04:19:07;102080.16;;;15.56;100.00
75221;BME280;63802;53.232;6.570;2023-06-22T04:21:32;102049.59;;;15.42;100.00
75221;BME280;63802;53.232;6.570;2023-06-22T04:23:58;102062.50;;;15.57;100.00
75221;BME280;63802;53.232;6.570;2023-06-22T04:26:26;102099.06;;;15.80;100.00
75221;BME280;63802;53.232;6.570;2023-06-22T04:28:51;102098.34;;;15.83;100.00
75221;BME280;63802;53.232;6.570;2023-06-22T04:31:21;102093.56;;;15.80;100.00
75221;BME280;63802;53.232;6.570;2023-06-22T04:33:46;102091.72;;;15.88;100.00
75221;BME280;63802;53.232;6.570;2023-06-22T04:36:12;102093.38;;;15.92;100.00
75221;BME280;63802;53.232;6.570;2023-06-22T04:38:39;102086.81;;;16.00;100.00
75221;BME280;63802;53.232;6.570;2023-06-22T04:41:05;102094.97;;;16.20;100.00
75221;BME280;63802;53.232;6.570;2023-06-22T04:43:31;102071.47;;;16.26;100.00
75221;BME280;63802;53.232;6.570;2023-06-22T04:46:05;102052.63;;;16.28;100.00
75221;BME280;63802;53.232;6.570;2023-06-22T04:48:34;102040.53;;;16.36;100.00
75221;BME280;63802;53.232;6.570;2023-06-22T04:51:01;102070.44;;;16.60;100.00
75221;BME280;63802;53.232;6.570;2023-06-22T04:53:30;102063.44;;;16.66;100.00
75221;BME280;63802;53.232;6.570;2023-06-22T04:55:56;102081.38;;;16.83;100.00
75221;BME280;63802;53.232;6.570;2023-06-22T04:58:21;102054.09;;;16.74;100.00
75221;BME280;63802;53.232;6.570;2023-06-22T05:00:47;102081.56;;;16.97;100.00
75221;BME280;63802;53.232;6.570;2023-06-22T05:03:13;102058.19;;;16.87;100.00
75221;BME280;63802;53.232;6.570;2023-06-22T05:05:38;102082.19;;;17.16;100.00
75221;BME280;63802;53.232;6.570;2023-06-22T05:08:04;102072.75;;;17.17;100.00
75221;BME280;63802;53.232;6.570;2023-06-22T05:10:32;102036.44;;;17.12;100.00
75221;BME280;63802;53.232;6.570;2023-06-22T05:13:01;102090.06;;;17.51;100.00
75221;BME280;63802;53.232;6.570;2023-06-22T05:15:26;102076.97;;;17.44;100.00
75221;BME280;63802;53.232;6.570;2023-06-22T05:17:55;102066.88;;;17.56;100.00
75221;BME280;63802;53.232;6.570;2023-06-22T05:20:21;102072.53;;;17.70;100.00
75221;BME280;63802;53.232;6.570;2023-06-22T05:22:47;102041.69;;;17.61;100.00
75221;BME280;63802;53.232;6.570;2023-06-22T05:25:13;102042.63;;;17.75;100.00
75221;BME280;63802;53.232;6.570;2023-06-22T05:27:38;102095.00;;;18.12;100.00
75221;BME280;63802;53.232;6.570;2023-06-22T05:30:08;102066.56;;;18.08;100.00
75221;BME280;63802;53.232;6.570;2023-06-22T05:32:35;102091.94;;;18.24;100.00
75221;BME280;63802;53.232;6.570;2023-06-22T05:35:01;102059.53;;;18.18;100.00
75221;BME280;63802;53.232;6.570;2023-06-22T05:37:27;102080.25;;;18.45;100.00
75221;BME280;63802;53.232;6.570;2023-06-22T05:39:53;102051.81;;;18.44;100.00
75221;BME280;63802;53.232;6.570;2023-06-22T05:42:21;102049.25;;;18.80;100.00
75221;BME280;63802;53.232;6.570;2023-06-22T05:44:49;102055.19;;;18.89;100.00
75221;BME280;63802;53.232;6.570;2023-06-22T05:47:15;102090.94;;;19.29;100.00
75221;BME280;63802;53.232;6.570;2023-06-22T05:49:41;102059.28;;;19.23;100.00
75221;BME280;63802;53.232;6.570;2023-06-22T05:52:10;102055.72;;;19.22;100.00
75221;BME280;63802;53.232;6.570;2023-06-22T05:54:39;102030.78;;;19.12;100.00
75221;BME280;63802;53.232;6.570;2023-06-22T05:57:10;102076.00;;;19.48;100.00
75221;BME280;63802;53.232;6.570;2023-06-22T05:59:35;102062.53;;;19.50;100.00
75221;BME280;63802;53.232;6.570;2023-06-22T06:02:02;102081.56;;;19.62;100.00
75221;BME280;63802;53.232;6.570;2023-06-22T06:04:27;102037.56;;;19.35;100.00
75221;BME280;63802;53.232;6.570;2023-06-22T06:06:59;102092.66;;;19.79;100.00
75221;BME280;63802;53.232;6.570;2023-06-22T06:09:25;102090.69;;;19.83;100.00
75221;BME280;63802;53.232;6.570;2023-06-22T06:11:59;102073.28;;;19.79;100.00
75221;BME280;63802;53.232;6.570;2023-06-22T06:14:25;102095.03;;;19.88;100.00
75221;BME280;63802;53.232;6.570;2023-06-22T06:16:50;102045.97;;;19.67;100.00
75221;BME280;63802;53.232;6.570;2023-06-22T06:19:16;102063.38;;;19.85;100.00
75221;BME280;63802;53.232;6.570;2023-06-22T06:21:41;102058.59;;;20.07;100.00
75221;BME280;63802;53.232;6.570;2023-06-22T06:24:07;102091.50;;;20.37;100.00
75221;BME280;63802;53.232;6.570;2023-06-22T06:26:32;102084.75;;;20.38;100.00
75221;BME280;63802;53.232;6.570;2023-06-22T06:29:01;102095.38;;;20.67;100.00
75221;BME280;63802;53.232;6.570;2023-06-22T06:31:27;102105.22;;;20.93;100.00
75221;BME280;63802;53.232;6.570;2023-06-22T06:33:57;102096.06;;;21.03;100.00
75221;BME280;63802;53.232;6.570;2023-06-22T06:36:25;102095.63;;;21.12;100.00
75221;BME280;63802;53.232;6.570;2023-06-22T06:38:53;102071.75;;;21.28;100.00
75221;BME280;63802;53.232;6.570;2023-06-22T06:41:19;102095.09;;;21.42;100.00
75221;BME280;63802;53.232;6.570;2023-06-22T06:43:46;102085.97;;;21.45;100.00
75221;BME280;63802;53.232;6.570;2023-06-22T06:46:14;102102.75;;;21.82;100.00
75221;BME280;63802;53.232;6.570;2023-06-22T06:48:40;102092.84;;;21.88;100.00
75221;BME280;63802;53.232;6.570;2023-06-22T06:51:26;102079.56;;;22.06;100.00
75221;BME280;63802;53.232;6.570;2023-06-22T06:53:51;102074.28;;;22.19;100.00
75221;BME280;63802;53.232;6.570;2023-06-22T06:56:17;102104.31;;;22.34;100.00
75221;BME280;63802;53.232;6.570;2023-06-22T06:58:42;102078.38;;;22.07;100.00
75221;BME280;63802;53.232;6.570;2023-06-22T07:01:13;102105.34;;;22.54;100.00
75221;BME280;63802;53.232;6.570;2023-06-22T07:03:38;102078.69;;;22.16;100.00
75221;BME280;63802;53.232;6.570;2023-06-22T07:06:04;102093.97;;;22.38;100.00
75221;BME280;63802;53.232;6.570;2023-06-22T07:08:30;102094.28;;;22.47;100.00
75221;BME280;63802;53.232;6.570;2023-06-22T07:10:56;102056.03;;;22.55;100.00
75221;BME280;63802;53.232;6.570;2023-06-22T07:13:22;102096.91;;;22.65;100.00
75221;BME280;63802;53.232;6.570;2023-06-22T07:15:47;102078.09;;;22.73;100.00
75221;BME280;63802;53.232;6.570;2023-06-22T07:18:13;102102.00;;;23.04;100.00
75221;BME280;63802;53.232;6.570;2023-06-22T07:20:39;102074.06;;;23.11;100.00
75221;BME280;63802;53.232;6.570;2023-06-22T07:23:10;102090.31;;;23.46;100.00
75221;BME280;63802;53.232;6.570;2023-06-22T07:25:39;102078.63;;;23.81;100.00
75221;BME280;63802;53.232;6.570;2023-06-22T07:28:09;102063.84;;;23.84;100.00
75221;BME280;63802;53.232;6.570;2023-06-22T07:30:37;102060.47;;;23.96;100.00
75221;BME280;63802;53.232;6.570;2023-06-22T07:33:14;102071.75;;;24.13;100.00
75221;BME280;63802;53.232;6.570;2023-06-22T07:35:40;102054.56;;;23.91;100.00
75221;BME280;63802;53.232;6.570;2023-06-22T07:38:10;102067.06;;;24.29;100.00
75221;BME280;63802;53.232;6.570;2023-06-22T07:40:36;102086.03;;;24.38;98.91
75221;BME280;63802;53.232;6.570;2023-06-22T07:43:02;102078.66;;;24.28;100.00
75221;BME280;63802;53.232;6.570;2023-06-22T07:45:29;102084.53;;;24.33;97.88
75221;BME280;63802;53.232;6.570;2023-06-22T07:48:00;102071.84;;;24.52;96.88
75221;BME280;63802;53.232;6.570;2023-06-22T07:50:26;102069.66;;;24.40;99.42
75221;BME280;63802;53.232;6.570;2023-06-22T07:52:54;102031.53;;;24.53;100.00
75221;BME280;63802;53.232;6.570;2023-06-22T07:55:20;102049.66;;;24.84;97.62
75221;BME280;63802;53.232;6.570;2023-06-22T07:57:48;102014.44;;;24.90;99.78
75221;BME280;63802;53.232;6.570;2023-06-22T08:00:17;102029.31;;;25.19;94.55
75221;BME280;63802;53.232;6.570;2023-06-22T08:02:45;102037.09;;;25.48;85.72
75221;BME280;63802;53.232;6.570;2023-06-22T08:05:14;102010.66;;;25.16;85.20
75221;BME280;63802;53.232;6.570;2023-06-22T08:07:40;101999.06;;;24.98;86.07
75221;BME280;63802;53.232;6.570;2023-06-22T08:10:11;102052.63;;;25.49;82.20
75221;BME280;63802;53.232;6.570;2023-06-22T08:12:37;102026.81;;;24.89;84.51
75221;BME280;63802;53.232;6.570;2023-06-22T08:15:03;102020.88;;;24.87;84.57
75221;BME280;63802;53.232;6.570;2023-06-22T08:17:29;102039.28;;;24.85;86.14
75221;BME280;63802;53.232;6.570;2023-06-22T08:19:56;102041.41;;;24.97;86.67
75221;BME280;63802;53.232;6.570;2023-06-22T08:22:22;102036.03;;;25.06;87.41
75221;BME280;63802;53.232;6.570;2023-06-22T08:24:48;102048.75;;;25.26;85.66
75221;BME280;63802;53.232;6.570;2023-06-22T08:27:16;102027.44;;;25.33;79.98
75221;BME280;63802;53.232;6.570;2023-06-22T08:29:43;102022.78;;;25.46;76.57
75221;BME280;63802;53.232;6.570;2023-06-22T08:32:11;102042.47;;;25.39;76.29
75221;BME280;63802;53.232;6.570;2023-06-22T08:34:37;102036.94;;;25.55;81.70
75221;BME280;63802;53.232;6.570;2023-06-22T08:37:06;102017.34;;;25.55;80.02
75221;BME280;63802;53.232;6.570;2023-06-22T08:39:31;102051.41;;;26.14;77.66
75221;BME280;63802;53.232;6.570;2023-06-22T08:41:58;102013.56;;;25.93;74.42
75221;BME280;63802;53.232;6.570;2023-06-22T08:44:23;102021.66;;;26.20;74.79
75221;BME280;63802;53.232;6.570;2023-06-22T08:46:49;102019.81;;;26.58;73.53
75221;BME280;63802;53.232;6.570;2023-06-22T08:49:14;102007.81;;;26.71;67.20
75221;BME280;63802;53.232;6.570;2023-06-22T08:51:40;102016.53;;;26.89;68.63
75221;BME280;63802;53.232;6.570;2023-06-22T08:54:06;102025.72;;;27.02;66.29
75221;BME280;63802;53.232;6.570;2023-06-22T08:56:31;102033.03;;;27.24;67.77
75221;BME280;63802;53.232;6.570;2023-06-22T08:58:57;102017.31;;;27.14;65.25
75221;BME280;63802;53.232;6.570;2023-06-22T09:01:23;102024.50;;;26.61;65.10
75221;BME280;63802;53.232;6.570;2023-06-22T09:03:49;102021.47;;;26.56;65.95
75221;BME280;63802;53.232;6.570;2023-06-22T09:06:20;102028.34;;;26.68;65.93
75221;BME280;63802;53.232;6.570;2023-06-22T09:08:47;102014.53;;;26.60;67.31
75221;BME280;63802;53.232;6.570;2023-06-22T09:11:12;102024.28;;;26.69;68.22
75221;BME280;63802;53.232;6.570;2023-06-22T09:13:38;102016.22;;;26.71;66.99
75221;BME280;63802;53.232;6.570;2023-06-22T09:16:04;101995.13;;;27.07;66.22
75221;BME280;63802;53.232;6.570;2023-06-22T09:18:29;102027.84;;;26.56;65.54
75221;BME280;63802;53.232;6.570;2023-06-22T09:20:55;101999.28;;;26.61;67.40
75221;BME280;63802;53.232;6.570;2023-06-22T09:23:20;102012.25;;;26.14;67.16
75221;BME280;63802;53.232;6.570;2023-06-22T09:25:46;102011.25;;;26.49;67.46
75221;BME280;63802;53.232;6.570;2023-06-22T09:28:13;102027.53;;;26.96;63.01
75221;BME280;63802;53.232;6.570;2023-06-22T09:30:39;102022.38;;;27.07;65.87
75221;BME280;63802;53.232;6.570;2023-06-22T09:33:04;102020.34;;;26.95;64.84
75221;BME280;63802;53.232;6.570;2023-06-22T09:35:30;102010.50;;;27.28;62.63
75221;BME280;63802;53.232;6.570;2023-06-22T09:37:56;101988.06;;;26.78;65.52
75221;BME280;63802;53.232;6.570;2023-06-22T09:40:21;101997.38;;;26.87;66.56
75221;BME280;63802;53.232;6.570;2023-06-22T09:42:47;101998.63;;;26.99;65.36
75221;BME280;63802;53.232;6.570;2023-06-22T09:45:13;101997.38;;;27.12;65.71
75221;BME280;63802;53.232;6.570;2023-06-22T09:47:38;102004.09;;;27.27;63.79
75221;BME280;63802;53.232;6.570;2023-06-22T09:50:05;102013.06;;;26.85;65.83
75221;BME280;63802;53.232;6.570;2023-06-22T09:52:30;101999.28;;;27.03;65.44
75221;BME280;63802;53.232;6.570;2023-06-22T09:54:56;102004.34;;;27.20;63.55
75221;BME280;63802;53.232;6.570;2023-06-22T09:57:21;101992.53;;;26.88;65.77
75221;BME280;63802;53.232;6.570;2023-06-22T09:59:47;101983.03;;;26.98;66.47
75221;BME280;63802;53.232;6.570;2023-06-22T10:02:12;101984.59;;;27.37;64.45
75221;BME280;63802;53.232;6.570;2023-06-22T10:04:38;101974.28;;;27.46;64.00
75221;BME280;63802;53.232;6.570;2023-06-22T10:07:05;101944.69;;;27.20;65.68
75221;BME280;63802;53.232;6.570;2023-06-22T10:09:31;101943.09;;;27.19;64.97
75221;BME280;63802;53.232;6.570;2023-06-22T10:11:57;101986.03;;;27.66;62.19
75221;BME280;63802;53.232;6.570;2023-06-22T10:14:23;101927.94;;;27.29;62.65
75221;BME280;63802;53.232;6.570;2023-06-22T10:16:52;101985.59;;;27.55;63.97
75221;BME280;63802;53.232;6.570;2023-06-22T10:19:20;101971.91;;;28.26;61.82
75221;BME280;63802;53.232;6.570;2023-06-22T10:21:46;101969.94;;;28.14;59.64
75221;BME280;63802;53.232;6.570;2023-06-22T10:24:12;101983.72;;;27.86;60.00
75221;BME280;63802;53.232;6.570;2023-06-22T10:26:37;101972.34;;;28.03;59.84
75221;BME280;63802;53.232;6.570;2023-06-22T10:29:03;101939.06;;;27.79;59.72
75221;BME280;63802;53.232;6.570;2023-06-22T10:31:29;101964.75;;;27.90;60.14
75221;BME280;63802;53.232;6.570;2023-06-22T10:33:56;101975.16;;;28.24;59.87
75221;BME280;63802;53.232;6.570;2023-06-22T10:36:22;101966.69;;;27.81;61.40
75221;BME280;63802;53.232;6.570;2023-06-22T10:38:48;101963.16;;;27.55;63.71
75221;BME280;63802;53.232;6.570;2023-06-22T10:41:14;101963.34;;;28.08;62.49
75221;BME280;63802;53.232;6.570;2023-06-22T10:43:42;101949.81;;;28.15;61.55
75221;BME280;63802;53.232;6.570;2023-06-22T10:46:09;101961.16;;;27.90;61.74
75221;BME280;63802;53.232;6.570;2023-06-22T10:48:34;101933.16;;;27.99;61.71
75221;BME280;63802;53.232;6.570;2023-06-22T10:51:04;101964.97;;;28.39;59.86
75221;BME280;63802;53.232;6.570;2023-06-22T10:53:30;101931.41;;;27.92;60.03
75221;BME280;63802;53.232;6.570;2023-06-22T10:55:55;101966.09;;;28.20;58.98
75221;BME280;63802;53.232;6.570;2023-06-22T10:58:21;101963.44;;;27.70;62.17
75221;BME280;63802;53.232;6.570;2023-06-22T11:00:46;101953.22;;;28.32;59.24
75221;BME280;63802;53.232;6.570;2023-06-22T11:03:14;101939.50;;;28.34;59.08
75221;BME280;63802;53.232;6.570;2023-06-22T11:05:40;101955.84;;;28.48;60.28
75221;BME280;63802;53.232;6.570;2023-06-22T11:08:07;101948.69;;;28.56;57.16
75221;BME280;63802;53.232;6.570;2023-06-22T11:10:32;101943.84;;;28.78;57.72
75221;BME280;63802;53.232;6.570;2023-06-22T11:12:58;101936.22;;;28.57;59.92
75221;BME280;63802;53.232;6.570;2023-06-22T11:15:25;101917.44;;;28.45;58.54
75221;BME280;63802;53.232;6.570;2023-06-22T11:17:51;101928.94;;;28.99;58.28
75221;BME280;63802;53.232;6.570;2023-06-22T11:20:16;101925.34;;;29.48;56.45
75221;BME280;63802;53.232;6.570;2023-06-22T11:22:42;101924.41;;;28.93;58.00
75221;BME280;63802;53.232;6.570;2023-06-22T11:25:08;101946.03;;;28.74;60.19
75221;BME280;63802;53.232;6.570;2023-06-22T11:27:34;101938.75;;;29.35;57.20
75221;BME280;63802;53.232;6.570;2023-06-22T11:30:06;101941.31;;;29.11;58.84
75221;BME280;63802;53.232;6.570;2023-06-22T11:32:33;101926.72;;;28.33;58.45
75221;BME280;63802;53.232;6.570;2023-06-22T11:34:59;101899.25;;;28.37;60.18
75221;BME280;63802;53.232;6.570;2023-06-22T11:37:24;101924.22;;;28.35;60.51
75221;BME280;63802;53.232;6.570;2023-06-22T11:39:50;101928.88;;;28.29;60.76
75221;BME280;63802;53.232;6.570;2023-06-22T11:42:16;101923.19;;;28.20;62.89
75221;BME280;63802;53.232;6.570;2023-06-22T11:44:42;101942.38;;;28.43;62.35
75221;BME280;63802;53.232;6.570;2023-06-22T11:47:08;101947.94;;;28.12;61.65
75221;BME280;63802;53.232;6.570;2023-06-22T11:49:34;101924.50;;;28.06;61.24
75221;BME280;63802;53.232;6.570;2023-06-22T11:52:00;101917.50;;;28.32;59.86
75221;BME280;63802;53.232;6.570;2023-06-22T11:54:28;101915.47;;;27.89;62.67
75221;BME280;63802;53.232;6.570;2023-06-22T11:56:54;101933.63;;;27.98;64.64
75221;BME280;63802;53.232;6.570;2023-06-22T11:59:20;101910.19;;;27.57;65.50
75221;BME280;63802;53.232;6.570;2023-06-22T12:01:47;101927.63;;;27.40;67.94
75221;BME280;63802;53.232;6.570;2023-06-22T12:04:15;101905.00;;;27.68;66.72
75221;BME280;63802;53.232;6.570;2023-06-22T12:06:43;101905.56;;;27.63;64.56
75221;BME280;63802;53.232;6.570;2023-06-22T12:09:09;101889.91;;;27.53;65.35
75221;BME280;63802;53.232;6.570;2023-06-22T12:11:35;101925.34;;;27.81;66.22
75221;BME280;63802;53.232;6.570;2023-06-22T12:14:01;101911.59;;;27.40;65.73
75221;BME280;63802;53.232;6.570;2023-06-22T12:16:30;101915.31;;;27.71;65.52
75221;BME280;63802;53.232;6.570;2023-06-22T12:18:56;101910.44;;;27.50;67.11
75221;BME280;63802;53.232;6.570;2023-06-22T12:21:21;101905.84;;;27.44;69.36
75221;BME280;63802;53.232;6.570;2023-06-22T12:23:47;101912.94;;;27.23;69.61
75221;BME280;63802;53.232;6.570;2023-06-22T12:26:13;101903.50;;;27.17;68.40
75221;BME280;63802;53.232;6.570;2023-06-22T12:28:39;101902.94;;;27.22;68.02
75221;BME280;63802;53.232;6.570;2023-06-22T12:31:04;101875.31;;;26.99;70.56
75221;BME280;63802;53.232;6.570;2023-06-22T12:33:29;101884.69;;;27.05;69.86
75221;BME280;63802;53.232;6.570;2023-06-22T12:35:56;101872.47;;;26.61;72.85
75221;BME280;63802;53.232;6.570;2023-06-22T12:38:22;101890.66;;;26.82;71.78
75221;BME280;63802;53.232;6.570;2023-06-22T12:40:50;101882.13;;;26.73;70.88
75221;BME280;63802;53.232;6.570;2023-06-22T12:43:16;101879.69;;;26.87;70.51
75221;BME280;63802;53.232;6.570;2023-06-22T12:45:42;101866.88;;;26.61;70.84
75221;BME280;63802;53.232;6.570;2023-06-22T12:48:08;101857.13;;;26.40;73.24
75221;BME280;63802;53.232;6.570;2023-06-22T12:50:34;101889.41;;;26.70;72.02